Terminal Aerodrome Forecast
Issued by NWS Upton, NY

Current Version | Previous Version | Text Only | Print | Product List | Glossary On
Versions: 1 2 3 4 5 6 7 8 9 10 11 12 13 14 15 16 17 18 19 20 21 22 23 24 25 26 27 28 29 30 31 32 33
000
FTUS41 KOKX 270238 AAA
TAFJFK
TAF AMD
KJFK 270238Z 2703/2806 20009KT P6SM SKC
     FM271100 19007KT P6SM BKN070
     FM271800 22013G20KT P6SM SCT060 BKN200
     FM272300 26013G20KT P6SM FEW060 SCT200
     FM280200 28010KT P6SM FEW050=

USA.gov is the U.S. government's official web portal to all federal, state and local government web resources and services.